Time;durP1;ratioP1;P1;durP2;ratioP2;P2;SDS_P1;SDS_P2;PMS_P1;PMS_P2;Temp;Humidity;BMP_temperature;BMP_pressure;BME280_temperature;BME280_humidity;BME280_pressure;Samples;Min_cycle;Max_cycle;Signal;HPM_P1;HPM_P2
2022/12/30 00:00:07;;;;;;;38.50;30.35;;;;;;;3.99;100.00;102224.50;2105281;28;20195;-63
2022/12/30 00:01:11;;;;;;;37.25;30.20;;;;;;;4.14;100.00;102252.00;2100981;28;20612;-64
2022/12/30 00:02:12;;;;;;;39.88;29.73;;;;;;;4.48;100.00;102299.97;2098709;28;20232;-63
2022/12/30 00:03:12;;;;;;;32.60;26.17;;;;;;;4.49;100.00;102299.63;2098794;28;20232;-63
2022/12/30 00:04:13;;;;;;;35.00;28.17;;;;;;;4.52;100.00;102311.84;2098652;28;20237;-64
2022/12/30 00:05:13;;;;;;;31.70;27.10;;;;;;;4.55;100.00;102295.47;2098937;28;20271;-63
2022/12/30 00:06:17;;;;;;;32.43;25.80;;;;;;;4.54;100.00;102293.88;2104547;28;20187;-63
2022/12/30 00:07:18;;;;;;;33.10;26.90;;;;;;;3.92;100.00;102191.38;2107364;28;20216;-63
2022/12/30 00:09:38;;;;;;;34.67;28.33;;;;;;;4.29;100.00;102269.63;2099214;28;20167;-64
2022/12/30 00:10:38;;;;;;;35.30;29.73;;;;;;;4.41;100.00;102302.53;2107196;28;20284;-64
2022/12/30 00:11:38;;;;;;;37.50;30.40;;;;;;;4.36;100.00;102308.28;2113392;28;20553;-64
2022/12/30 00:33:52;;;;;;;33.35;25.05;;;;;;;4.47;100.00;102331.31;2099067;28;20284;-64
2022/12/30 00:34:52;;;;;;;31.17;24.63;;;;;;;4.45;100.00;102326.19;2098833;28;20246;-64
2022/12/30 00:35:53;;;;;;;28.97;24.77;;;;;;;4.42;100.00;102329.59;2098699;28;20194;-64
2022/12/30 00:36:54;;;;;;;30.73;24.83;;;;;;;4.29;100.00;102327.25;2098658;28;20191;-64
2022/12/30 00:37:55;;;;;;;30.95;25.58;;;;;;;4.27;100.00;102330.34;2098702;28;20193;-63
2022/12/30 00:38:55;;;;;;;35.70;25.30;;;;;;;4.25;100.00;102338.16;2098582;28;20193;-63
2022/12/30 00:39:56;;;;;;;29.70;25.30;;;;;;;4.34;100.00;102335.25;2098643;28;20651;-64
2022/12/30 00:43:35;;;;;;;32.33;25.65;;;;;;;4.48;100.00;102327.44;2098782;28;20283;-63
2022/12/30 00:44:35;;;;;;;32.53;25.47;;;;;;;4.50;100.00;102330.59;2104275;28;20182;-63
2022/12/30 00:45:40;;;;;;;32.30;25.73;;;;;;;4.40;100.00;102303.66;2106666;28;20542;-63
2022/12/30 00:46:42;;;;;;;33.13;25.65;;;;;;;4.33;100.00;102293.31;2106532;28;20162;-64
2022/12/30 00:47:44;;;;;;;34.53;25.30;;;;;;;4.55;100.00;102333.91;2106871;28;20185;-63
2022/12/30 00:56:42;;;;;;;31.25;24.17;;;;;;;4.54;100.00;102332.31;2098633;28;20198;-63
2022/12/30 00:57:43;;;;;;;35.55;25.38;;;;;;;4.43;100.00;102303.78;2106043;28;20750;-63
2022/12/30 00:58:43;;;;;;;29.87;23.73;;;;;;;4.51;100.00;102324.78;2106581;28;20293;-63
2022/12/30 00:59:43;;;;;;;27.73;23.37;;;;;;;4.54;100.00;102328.75;2106929;28;20659;-64
2022/12/30 01:00:44;;;;;;;30.47;23.73;;;;;;;4.53;100.00;102321.69;2106426;28;20210;-64
2022/12/30 01:01:44;;;;;;;30.07;24.17;;;;;;;4.54;100.00;102326.84;2106131;28;20608;-64
2022/12/30 01:02:45;;;;;;;28.83;23.33;;;;;;;4.52;100.00;102329.09;2104257;28;20193;-64
2022/12/30 01:03:46;;;;;;;30.87;24.67;;;;;;;4.52;100.00;102318.13;2102320;28;20226;-64
2022/12/30 01:04:46;;;;;;;29.97;24.90;;;;;;;4.53;100.00;102321.69;2106830;28;20229;-64
2022/12/30 01:05:46;;;;;;;31.43;24.63;;;;;;;4.53;100.00;102317.00;2101048;28;20439;-64
2022/12/30 01:06:47;;;;;;;29.73;25.03;;;;;;;4.56;100.00;102319.03;2105272;28;20184;-64
2022/12/30 01:07:47;;;;;;;30.13;24.57;;;;;;;4.43;100.00;102295.53;2105772;28;20549;-64
2022/12/30 01:08:48;;;;;;;28.17;23.63;;;;;;;4.56;100.00;102313.53;2103176;28;20215;-64
2022/12/30 01:09:48;;;;;;;30.13;24.60;;;;;;;4.55;100.00;102314.69;2106515;28;20192;-64
2022/12/30 01:10:48;;;;;;;29.83;24.17;;;;;;;4.38;100.00;102286.75;2102071;28;20188;-64
2022/12/30 01:12:07;;;;;;;28.87;23.33;;;;;;;4.56;100.00;102310.78;2100007;28;20237;-64
2022/12/30 01:13:08;;;;;;;29.58;23.10;;;;;;;4.62;100.00;102314.88;2105951;28;20190;-63
2022/12/30 01:14:08;;;;;;;32.67;24.00;;;;;;;4.61;100.00;102318.00;2100535;28;20683;-64
2022/12/30 01:15:09;;;;;;;31.63;24.00;;;;;;;4.56;100.00;102310.78;2106969;28;20208;-64
2022/12/30 01:16:12;;;;;;;32.70;25.70;;;;;;;4.56;100.00;102316.28;2106444;28;20190;-64
2022/12/30 01:17:16;;;;;;;30.17;24.08;;;;;;;4.55;100.00;102328.41;2106534;28;20220;-64
2022/12/30 01:18:17;;;;;;;33.67;25.33;;;;;;;4.50;100.00;102327.88;2106180;28;20193;-64
2022/12/30 01:19:17;;;;;;;36.80;25.43;;;;;;;4.51;100.00;102326.75;2103305;28;20715;-64
2022/12/30 01:20:18;;;;;;;30.73;24.67;;;;;;;4.50;100.00;102314.13;2106354;28;20301;-64
2022/12/30 01:21:19;;;;;;;28.30;23.33;;;;;;;4.36;100.00;102300.03;2103048;28;20188;-63
2022/12/30 01:22:19;;;;;;;31.80;25.27;;;;;;;4.53;100.00;102322.50;2097562;28;20178;-64
2022/12/30 01:23:19;;;;;;;32.40;25.27;;;;;;;4.55;100.00;102328.41;2098804;28;20183;-64
2022/12/30 01:24:20;;;;;;;30.67;24.83;;;;;;;4.49;100.00;102309.78;2098314;28;20190;-64
2022/12/30 01:25:20;;;;;;;31.60;23.97;;;;;;;4.56;100.00;102313.53;2106080;28;20570;-64
2022/12/30 01:26:21;;;;;;;30.77;25.27;;;;;;;4.58;100.00;102315.94;2102617;28;20191;-64
2022/12/30 01:27:21;;;;;;;32.07;24.67;;;;;;;4.58;100.00;102313.19;2100065;28;20273;-64
2022/12/30 01:28:22;;;;;;;29.97;24.33;;;;;;;3.96;100.00;102209.53;2101721;28;20193;-64
2022/12/30 01:29:42;;;;;;;34.07;24.13;;;;;;;4.58;100.00;102314.00;2106220;28;20480;-64
2022/12/30 01:30:42;;;;;;;28.23;23.00;;;;;;;4.53;100.00;102303.28;2104538;28;20709;-64
2022/12/30 01:31:43;;;;;;;29.73;23.63;;;;;;;4.52;100.00;102307.16;2100278;28;20274;-64
2022/12/30 01:32:43;;;;;;;27.63;23.17;;;;;;;4.48;100.00;102303.53;2101829;28;20205;-64
2022/12/30 01:33:43;;;;;;;27.80;22.63;;;;;;;4.48;100.00;102306.28;2106600;28;20192;-64
2022/12/30 01:34:45;;;;;;;26.90;22.43;;;;;;;3.89;100.00;102234.03;2104228;28;20180;-64
2022/12/30 01:35:45;;;;;;;28.65;22.65;;;;;;;4.44;100.00;102312.78;2104007;28;20257;-73
2022/12/30 01:36:45;;;;;;;29.00;23.70;;;;;;;4.45;100.00;102317.13;2105394;28;20180;-64
2022/12/30 01:37:46;;;;;;;26.97;23.00;;;;;;;4.42;100.00;102323.34;2106367;28;20325;-64
2022/12/30 01:38:46;;;;;;;30.87;22.73;;;;;;;4.43;100.00;102313.94;2106012;28;20226;-64
2022/12/30 01:39:47;;;;;;;33.63;23.83;;;;;;;4.43;100.00;102313.94;2102250;28;20193;-64
2022/12/30 01:40:47;;;;;;;33.70;23.00;;;;;;;4.40;100.00;102304.47;2101340;28;20208;-64
2022/12/30 01:41:48;;;;;;;31.93;23.07;;;;;;;4.44;100.00;102308.13;2106005;28;20164;-64
2022/12/30 01:42:49;;;;;;;34.87;24.03;;;;;;;4.41;100.00;102299.78;2103238;28;20261;-64
2022/12/30 01:43:49;;;;;;;31.67;23.43;;;;;;;3.67;100.00;102185.22;2102532;28;20597;-63
2022/12/30 01:44:53;;;;;;;30.67;23.30;;;;;;;4.35;100.00;102299.22;2100069;28;20182;-63
2022/12/30 01:45:54;;;;;;;29.08;22.13;;;;;;;4.35;100.00;102301.16;2101224;28;20209;-64
2022/12/30 01:46:54;;;;;;;32.10;23.10;;;;;;;4.32;100.00;102305.41;2102563;28;20253;-63
2022/12/30 01:48:25;;;;;;;32.03;23.00;;;;;;;4.35;100.00;102293.75;2102447;28;20867;-63
2022/12/30 01:49:26;;;;;;;28.63;22.73;;;;;;;3.89;100.00;102224.97;2110295;28;20709;-63
2022/12/30 01:50:48;;;;;;;30.93;22.97;;;;;;;4.34;100.00;102294.09;2102394;28;20201;-63
2022/12/30 01:51:49;;;;;;;28.30;21.40;;;;;;;3.98;100.00;102231.13;2105861;28;20233;-64
2022/12/30 01:52:59;;;;;;;28.60;21.97;;;;;;;4.35;100.00;102291.00;2105517;28;20209;-64
2022/12/30 01:54:01;;;;;;;31.60;22.67;;;;;;;4.36;100.00;102291.81;2106216;28;20241;-64
2022/12/30 01:55:08;;;;;;;27.80;23.15;;;;;;;3.72;100.00;102189.63;2101216;28;20185;-63
2022/12/30 01:56:23;;;;;;;29.25;22.30;;;;;;;4.22;100.00;102278.50;2104335;28;20275;-63
2022/12/30 01:57:24;;;;;;;27.30;21.85;;;;;;;3.54;100.00;102172.69;2102147;28;20194;-64
2022/12/30 01:58:33;;;;;;;29.35;22.95;;;;;;;4.24;100.00;102283.59;2102462;28;20194;-63
2022/12/30 01:59:35;;;;;;;28.20;23.55;;;;;;;4.17;100.00;102283.41;2103757;28;20189;-63
2022/12/30 02:00:36;;;;;;;28.48;22.88;;;;;;;4.23;100.00;102293.81;2103796;28;20232;-64
2022/12/30 02:01:36;;;;;;;26.37;22.30;;;;;;;3.80;100.00;102221.63;2105766;28;20196;-63
2022/12/30 02:02:37;;;;;;;29.10;22.93;;;;;;;4.21;100.00;102281.56;2102931;28;20184;-64
2022/12/30 02:03:44;;;;;;;28.40;23.10;;;;;;;4.23;100.00;102302.03;2098996;28;20230;-63
2022/12/30 02:04:45;;;;;;;26.35;22.10;;;;;;;4.23;100.00;102280.09;2105704;28;20206;-63
2022/12/30 02:05:47;;;;;;;30.03;22.20;;;;;;;4.26;100.00;102273.88;2106425;28;20285;-63
2022/12/30 02:07:09;;;;;;;27.70;22.67;;;;;;;4.26;100.00;102278.59;2097982;28;20232;-64
2022/12/30 02:08:16;;;;;;;26.80;21.83;;;;;;;4.27;100.00;102275.47;2097298;28;20183;-64
2022/12/30 02:09:17;;;;;;;26.50;21.63;;;;;;;4.24;100.00;102272.63;2098240;28;20550;-64
2022/12/30 02:10:20;;;;;;;27.73;20.98;;;;;;;3.73;100.00;102199.44;2104674;28;20544;-63
2022/12/30 02:11:21;;;;;;;28.55;22.20;;;;;;;4.23;100.00;102274.59;2109039;28;20693;-64
2022/12/30 02:12:22;;;;;;;26.83;21.98;;;;;;;4.25;100.00;102272.28;2107970;28;20302;-64
2022/12/30 02:13:22;;;;;;;27.47;22.23;;;;;;;4.25;100.00;102264.06;2105059;28;20211;-64
2022/12/30 02:14:25;;;;;;;26.93;21.67;;;;;;;4.22;100.00;102263.97;2104868;28;20212;-64
2022/12/30 02:15:29;;;;;;;26.83;22.60;;;;;;;4.22;100.00;102270.25;2106104;28;20192;-64
2022/12/30 02:17:07;;;;;;;29.25;23.33;;;;;;;4.24;100.00;102267.94;2098020;28;20628;-64
2022/12/30 02:18:40;;;;;;;28.55;21.90;;;;;;;3.47;100.00;102142.34;2096847;28;20184;-64
2022/12/30 02:19:55;;;;;;;28.70;21.52;;;;;;;4.19;100.00;102262.72;2096595;28;20202;-63
2022/12/30 02:21:30;;;;;;;27.20;21.70;;;;;;;4.21;100.00;102263.16;2097373;28;20195;-63
2022/12/30 02:22:43;;;;;;;28.17;21.80;;;;;;;4.22;100.00;102263.97;2105543;28;20179;-64
2022/12/30 02:24:17;;;;;;;26.95;21.75;;;;;;;4.21;100.00;102265.88;2098100;28;20189;-63
2022/12/30 02:25:39;;;;;;;25.17;20.50;;;;;;;4.19;100.00;102264.66;2096931;28;20170;-64
2022/12/30 02:26:51;;;;;;;26.38;20.90;;;;;;;4.17;100.00;102266.94;2106546;28;20185;-64
2022/12/30 02:28:13;;;;;;;31.45;21.48;;;;;;;4.11;100.00;102262.88;2111629;28;20164;-63
2022/12/30 02:29:29;;;;;;;24.15;19.98;;;;;;;4.07;100.00;102271.00;2105275;28;20194;-63
2022/12/30 02:30:51;;;;;;;26.88;20.27;;;;;;;4.07;100.00;102262.78;2104662;28;20610;-63
2022/12/30 02:32:07;;;;;;;27.80;20.42;;;;;;;4.03;100.00;102258.31;2104546;28;20653;-64
2022/12/30 02:33:32;;;;;;;25.42;20.65;;;;;;;4.00;100.00;102270.00;2103861;28;20220;-63
2022/12/30 02:34:55;;;;;;;27.42;20.92;;;;;;;3.96;100.00;102278.09;2104530;28;20200;-64
2022/12/30 02:36:14;;;;;;;28.25;20.60;;;;;;;3.94;100.00;102276.84;2098068;28;20641;-63
2022/12/30 02:37:44;;;;;;;27.27;20.27;;;;;;;3.86;100.00;102269.59;2097294;28;20183;-64
2022/12/30 02:39:19;;;;;;;24.83;20.30;;;;;;;3.85;100.00;102270.72;2095967;28;20295;-64
2022/12/30 02:44:36;;;;;;;25.48;19.42;;;;;;;3.82;100.00;102266.75;2101458;28;20191;-64
2022/12/30 02:45:03;;;;;;;26.85;20.30;;;;;;;3.50;100.00;102253.22;2097062;28;20161;-64
2022/12/30 02:46:08;;;;;;;23.95;20.48;;;;;;;3.53;100.00;102268.94;2099987;28;20221;-64
2022/12/30 02:47:25;;;;;;;25.65;20.90;;;;;;;3.44;100.00;102269.09;2104250;28;20568;-63
2022/12/30 02:48:30;;;;;;;27.33;20.65;;;;;;;3.41;100.00;102275.28;2097421;28;20227;-64
2022/12/30 02:49:33;;;;;;;27.63;22.42;;;;;;;3.37;100.00;102270.81;2107801;28;20235;-64
2022/12/30 02:52:18;;;;;;;25.90;20.42;;;;;;;3.42;100.00;102262.34;2100766;28;20190;-64
2022/12/30 02:53:22;;;;;;;28.13;21.08;;;;;;;3.43;100.00;102264.75;2105912;28;20191;-64
2022/12/30 02:54:24;;;;;;;26.27;20.17;;;;;;;3.36;100.00;102256.31;2101324;28;20189;-63
2022/12/30 02:55:25;;;;;;;28.73;21.60;;;;;;;3.42;100.00;102263.16;2097536;28;20184;-63
2022/12/30 02:56:25;;;;;;;25.70;20.80;;;;;;;3.41;100.00;102264.31;2097416;28;20671;-63
2022/12/30 02:57:31;;;;;;;27.70;23.13;;;;;;;3.41;100.00;102260.75;2097562;28;20609;-64
2022/12/30 02:58:38;;;;;;;25.70;21.58;;;;;;;3.32;100.00;102240.91;2097323;28;20653;-63
2022/12/30 03:04:42;;;;;;;27.80;21.40;;;;;;;3.33;100.00;102272.66;2097360;28;20175;-64
2022/12/30 03:06:08;;;;;;;28.80;21.52;;;;;;;3.06;100.00;102274.13;2098467;28;20194;-63
2022/12/30 03:07:40;;;;;;;30.70;23.48;;;;;;;2.90;100.00;102269.66;2100282;28;20189;-63
2022/12/30 03:08:43;;;;;;;29.83;22.33;;;;;;;2.88;100.00;102280.94;2071835;28;20229;-63
2022/12/30 03:11:22;;;;;;;40.50;31.67;;;;;;;2.84;100.00;102276.50;2103241;28;20368;-63
2022/12/30 03:12:28;;;;;;;40.25;32.03;;;;;;;2.81;100.00;102280.72;2105213;28;20189;-63
2022/12/30 03:13:35;;;;;;;37.88;29.17;;;;;;;2.80;100.00;102281.06;2104390;28;20201;-63
2022/12/30 03:14:50;;;;;;;29.58;24.30;;;;;;;2.75;100.00;102264.84;2097420;28;20225;-63
2022/12/30 03:16:23;;;;;;;31.40;24.80;;;;;;;2.80;100.00;102267.38;2104533;28;20537;-63
2022/12/30 03:17:31;;;;;;;29.10;23.10;;;;;;;2.77;100.00;102270.81;2101893;28;20198;-63
2022/12/30 03:18:32;;;;;;;29.00;23.73;;;;;;;2.69;100.00;102261.56;2105658;28;20187;-63
2022/12/30 03:19:39;;;;;;;31.23;23.33;;;;;;;2.82;100.00;102276.84;2105881;28;20194;-63
2022/12/30 03:20:42;;;;;;;37.70;28.00;;;;;;;2.81;100.00;102275.25;2105728;28;20696;-64
2022/12/30 03:21:44;;;;;;;35.53;25.35;;;;;;;2.84;100.00;102268.28;2103114;28;20694;-63
2022/12/30 03:27:05;;;;;;;30.58;23.70;;;;;;;2.87;100.00;102278.59;2097547;28;20650;-64
2022/12/30 03:28:09;;;;;;;32.63;24.00;;;;;;;2.88;100.00;102280.94;2097545;28;20186;-63
2022/12/30 03:29:14;;;;;;;42.05;33.30;;;;;;;2.86;100.00;102276.97;2097444;28;20180;-63
2022/12/30 03:30:16;;;;;;;35.47;26.83;;;;;;;2.86;100.00;102288.72;2097066;28;20227;-63
2022/12/30 03:31:19;;;;;;;38.85;29.48;;;;;;;2.70;100.00;102257.66;2096746;28;20183;-63
2022/12/30 03:32:21;;;;;;;38.15;28.58;;;;;;;2.47;100.00;102229.09;2096882;28;20179;-64
2022/12/30 03:33:22;;;;;;;31.80;25.10;;;;;;;2.21;100.00;102175.84;2097393;28;20211;-63
2022/12/30 03:34:27;;;;;;;31.45;24.98;;;;;;;2.40;100.00;102206.19;2097523;28;20349;-63
2022/12/30 03:35:31;;;;;;;29.25;23.88;;;;;;;2.90;100.00;102286.09;2097421;28;20654;-64
2022/12/30 03:36:36;;;;;;;32.65;25.80;;;;;;;2.91;100.00;102284.94;2098017;28;20175;-64
2022/12/30 03:37:44;;;;;;;32.97;25.42;;;;;;;2.90;100.00;102277.88;2105119;28;20171;-63
2022/12/30 03:39:15;;;;;;;32.28;24.95;;;;;;;2.82;100.00;102285.06;2105496;28;20170;-64
2022/12/30 03:40:25;;;;;;;36.67;24.40;;;;;;;2.79;100.00;102284.94;2089424;28;20191;-64
2022/12/30 03:41:27;;;;;;;43.78;31.13;;;;;;;2.79;100.00;102288.50;2097009;28;20221;-63
2022/12/30 03:42:29;;;;;;;43.90;34.30;;;;;;;2.70;100.00;102274.09;2099571;28;20209;-63
2022/12/30 03:43:31;;;;;;;37.53;29.70;;;;;;;2.79;100.00;102284.94;2104008;28;20194;-64
2022/12/30 03:44:33;;;;;;;36.80;25.23;;;;;;;2.79;100.00;102291.22;2098037;28;20171;-63
2022/12/30 03:45:34;;;;;;;34.97;24.77;;;;;;;2.81;100.00;102291.69;2105915;28;20712;-64
2022/12/30 03:46:34;;;;;;;30.83;24.10;;;;;;;2.44;100.00;102232.53;2105734;28;20571;-64
2022/12/30 03:47:35;;;;;;;33.20;26.33;;;;;;;2.82;100.00;102293.28;2105667;28;20316;-64
2022/12/30 03:48:35;;;;;;;40.47;30.80;;;;;;;2.82;100.00;102292.50;2099626;28;20643;-63
2022/12/30 03:49:38;;;;;;;33.03;25.63;;;;;;;2.81;100.00;102288.94;2101410;28;20183;-63
2022/12/30 03:50:38;;;;;;;30.85;22.85;;;;;;;2.83;100.00;102294.88;2097245;28;20221;-63
2022/12/30 03:51:39;;;;;;;30.50;24.97;;;;;;;2.29;100.00;102219.50;2096995;28;20217;-63
2022/12/30 03:52:39;;;;;;;29.93;23.53;;;;;;;2.74;100.00;102283.25;2096658;28;20671;-64
2022/12/30 03:53:40;;;;;;;34.33;25.20;;;;;;;2.81;100.00;102293.59;2097335;28;20650;-63
2022/12/30 03:54:42;;;;;;;35.93;28.00;;;;;;;2.80;100.00;102290.09;2097454;28;20247;-63
2022/12/30 03:55:42;;;;;;;34.50;27.13;;;;;;;2.82;100.00;102287.00;2097495;28;20206;-63
2022/12/30 03:56:43;;;;;;;30.63;25.07;;;;;;;2.82;100.00;102292.50;2097202;28;20249;-63
2022/12/30 03:57:43;;;;;;;32.53;26.33;;;;;;;2.68;100.00;102267.38;2097439;28;20203;-64
2022/12/30 03:58:44;;;;;;;32.80;25.33;;;;;;;2.79;100.00;102285.75;2097149;28;20219;-63
2022/12/30 03:59:44;;;;;;;33.27;25.83;;;;;;;2.75;100.00;102279.34;2097355;28;20211;-63
2022/12/30 04:00:44;;;;;;;39.00;30.27;;;;;;;2.82;100.00;102290.53;2099008;28;20171;-64
2022/12/30 04:01:45;;;;;;;40.83;31.00;;;;;;;2.70;100.00;102270.53;2105220;28;20179;-64
2022/12/30 04:02:45;;;;;;;37.10;29.27;;;;;;;2.83;100.00;102291.34;2105370;28;20168;-64
2022/12/30 04:03:46;;;;;;;37.93;28.50;;;;;;;2.75;100.00;102278.53;2097755;28;20605;-64
2022/12/30 04:04:46;;;;;;;42.60;30.50;;;;;;;2.82;100.00;102285.06;2097231;28;20192;-63
2022/12/30 04:05:52;;;;;;;40.40;30.77;;;;;;;2.37;100.00;102218.59;2099361;28;20173;-63
2022/12/30 04:06:53;;;;;;;44.72;30.67;;;;;;;2.86;100.00;102296.13;2105452;28;20251;-64
2022/12/30 04:07:53;;;;;;;39.03;28.90;;;;;;;2.74;100.00;102282.44;2101809;28;20176;-63
2022/12/30 04:08:53;;;;;;;34.57;26.30;;;;;;;2.82;100.00;102289.75;2097115;28;20196;-64
2022/12/30 04:09:54;;;;;;;33.40;25.93;;;;;;;2.80;100.00;102302.97;2097337;28;20172;-63
2022/12/30 04:10:54;;;;;;;32.40;24.57;;;;;;;2.82;100.00;102306.19;2097579;28;20203;-64
2022/12/30 04:11:55;;;;;;;33.43;25.80;;;;;;;2.83;100.00;102308.56;2105621;28;20166;-63
2022/12/30 04:12:55;;;;;;;38.43;27.50;;;;;;;2.79;100.00;102304.09;2097460;28;20574;-63
2022/12/30 04:13:56;;;;;;;34.73;26.67;;;;;;;2.83;100.00;102307.78;2097356;28;20207;-63
2022/12/30 04:14:56;;;;;;;36.00;28.37;;;;;;;2.84;100.00;102301.97;2102468;28;20179;-64
2022/12/30 04:15:56;;;;;;;41.33;28.83;;;;;;;2.86;100.00;102309.81;2105543;28;20212;-63
2022/12/30 04:16:57;;;;;;;42.13;30.00;;;;;;;2.86;100.00;102307.06;2102759;28;20273;-63
2022/12/30 04:17:57;;;;;;;41.33;29.63;;;;;;;2.88;100.00;102308.34;2098492;28;20168;-63
2022/12/30 04:18:58;;;;;;;39.37;29.33;;;;;;;2.90;100.00;102313.47;2105389;28;20261;-63
2022/12/30 04:19:58;;;;;;;41.57;30.90;;;;;;;2.90;100.00;102314.28;2105888;28;20168;-63
2022/12/30 04:20:58;;;;;;;40.30;29.00;;;;;;;2.95;100.00;102308.59;2097727;28;20183;-63
2022/12/30 04:21:59;;;;;;;38.10;29.13;;;;;;;2.95;100.00;102313.25;2103219;28;20265;-63
2022/12/30 04:22:59;;;;;;;40.47;30.10;;;;;;;2.84;100.00;102296.50;2104964;28;20672;-63
2022/12/30 04:24:00;;;;;;;36.23;28.97;;;;;;;2.94;100.00;102317.97;2101601;28;20188;-63
2022/12/30 04:25:00;;;;;;;37.73;29.77;;;;;;;2.95;100.00;102319.56;2096385;28;20194;-63
2022/12/30 04:26:00;;;;;;;44.73;32.17;;;;;;;2.96;100.00;102323.06;2097402;28;20187;-63
2022/12/30 04:27:01;;;;;;;40.90;32.47;;;;;;;2.96;100.00;102317.59;2097150;28;20176;-64
2022/12/30 04:28:02;;;;;;;42.27;31.60;;;;;;;2.97;100.00;102328.22;2105690;28;20206;-63
2022/12/30 04:29:02;;;;;;;51.17;32.53;;;;;;;2.99;100.00;102330.63;2105335;28;20198;-64
2022/12/30 04:30:03;;;;;;;41.63;30.20;;;;;;;2.98;100.00;102326.28;2105156;28;20255;-64
2022/12/30 04:31:05;;;;;;;41.03;30.88;;;;;;;3.00;100.00;102333.03;2104927;28;20221;-63
2022/12/30 04:32:05;;;;;;;38.58;29.67;;;;;;;2.55;100.00;102250.13;2105160;28;20680;-63
2022/12/30 04:33:06;;;;;;;36.90;26.93;;;;;;;3.06;100.00;102330.84;2104601;28;20632;-63
2022/12/30 04:34:07;;;;;;;35.80;26.60;;;;;;;3.06;100.00;102339.06;2105308;28;20167;-63
2022/12/30 04:35:08;;;;;;;35.37;27.77;;;;;;;3.07;100.00;102335.19;2104969;28;20176;-64
2022/12/30 04:36:08;;;;;;;36.03;28.42;;;;;;;3.02;100.00;102319.78;2105720;28;20551;-63
2022/12/30 04:37:09;;;;;;;35.13;29.00;;;;;;;3.09;100.00;102328.22;2105329;28;20209;-63
2022/12/30 04:38:09;;;;;;;35.77;28.63;;;;;;;3.10;100.00;102324.38;2098427;28;20191;-63
2022/12/30 04:39:10;;;;;;;33.37;26.57;;;;;;;3.11;100.00;102330.63;2097174;28;20187;-63
2022/12/30 04:40:10;;;;;;;34.67;27.33;;;;;;;3.06;100.00;102336.31;2101653;28;20191;-64
2022/12/30 04:41:12;;;;;;;34.93;28.80;;;;;;;2.92;100.00;102338.59;2101523;28;20638;-64
2022/12/30 04:42:12;;;;;;;34.17;27.58;;;;;;;2.81;100.00;102335.47;2098735;28;20183;-63
2022/12/30 04:43:12;;;;;;;37.93;28.13;;;;;;;2.66;100.00;102330.66;2106199;28;20649;-63
2022/12/30 04:44:13;;;;;;;42.80;28.00;;;;;;;2.76;100.00;102335.69;2106463;28;20203;-63
2022/12/30 04:45:14;;;;;;;32.40;27.03;;;;;;;2.77;100.00;102331.03;2098984;28;20199;-63
2022/12/30 04:46:14;;;;;;;33.70;26.87;;;;;;;1.98;100.00;102191.03;2099592;28;20682;-63
2022/12/30 04:47:15;;;;;;;41.20;32.73;;;;;;;2.81;100.00;102320.97;2103879;28;20222;-64
2022/12/30 04:48:15;;;;;;;44.27;34.43;;;;;;;2.54;100.00;102264.13;2106097;28;20175;-63
2022/12/30 04:49:16;;;;;;;37.93;30.90;;;;;;;2.98;100.00;102329.03;2105671;28;20270;-63
2022/12/30 04:50:16;;;;;;;44.57;35.50;;;;;;;3.00;100.00;102329.47;2101868;28;20196;-63
2022/12/30 04:51:17;;;;;;;47.20;37.47;;;;;;;2.94;100.00;102330.84;2101519;28;20228;-63
2022/12/30 04:52:17;;;;;;;44.80;35.47;;;;;;;2.93;100.00;102318.28;2099211;28;20205;-63
2022/12/30 04:53:18;;;;;;;45.93;37.50;;;;;;;2.57;100.00;102252.53;2107109;28;20195;-63
2022/12/30 04:54:18;;;;;;;44.83;35.47;;;;;;;2.37;100.00;102224.06;2102843;28;20645;-63
2022/12/30 04:55:19;;;;;;;46.93;35.33;;;;;;;2.80;100.00;102287.34;2100844;28;20618;-63
2022/12/30 04:56:19;;;;;;;48.40;36.13;;;;;;;3.08;100.00;102337.59;2102274;28;20266;-63
2022/12/30 04:57:19;;;;;;;48.93;36.90;;;;;;;3.06;100.00;102339.06;2102077;28;20187;-63
2022/12/30 04:58:20;;;;;;;41.53;33.33;;;;;;;2.40;100.00;102234.34;2106452;28;20171;-63
2022/12/30 04:59:21;;;;;;;39.67;33.03;;;;;;;3.14;100.00;102352.66;2106719;28;20210;-63
2022/12/30 05:00:21;;;;;;;39.87;33.23;;;;;;;3.12;100.00;102343.16;2106288;28;20428;-63
2022/12/30 05:01:22;;;;;;;43.70;33.37;;;;;;;3.17;100.00;102351.97;2106737;28;20258;-63
2022/12/30 05:02:22;;;;;;;40.80;31.90;;;;;;;3.22;100.00;102351.75;2105849;28;20595;-63
2022/12/30 05:03:23;;;;;;;44.03;34.17;;;;;;;3.26;100.00;102358.16;2105837;28;20282;-63
2022/12/30 05:04:23;;;;;;;44.03;34.37;;;;;;;3.25;100.00;102358.50;2104428;28;20198;-63
2022/12/30 05:05:24;;;;;;;44.67;34.17;;;;;;;3.10;100.00;102334.50;2102246;28;20208;-64
2022/12/30 05:06:24;;;;;;;47.80;33.83;;;;;;;3.30;100.00;102361.84;2105520;28;20206;-64
2022/12/30 05:07:25;;;;;;;42.30;33.37;;;;;;;2.52;100.00;102228.09;2104981;28;20183;-63
2022/12/30 05:08:25;;;;;;;42.83;33.03;;;;;;;3.38;100.00;102358.16;2100895;28;20187;-63
2022/12/30 05:09:26;;;;;;;42.40;33.03;;;;;;;3.36;100.00;102348.69;2098690;28;20197;-63
2022/12/30 05:10:26;;;;;;;42.43;32.70;;;;;;;3.44;100.00;102362.28;2105864;28;20198;-63
2022/12/30 05:11:26;;;;;;;37.83;30.67;;;;;;;3.50;100.00;102360.13;2107411;28;20191;-63
2022/12/30 05:12:27;;;;;;;38.87;30.20;;;;;;;3.50;100.00;102355.41;2101933;28;20278;-63
2022/12/30 05:13:27;;;;;;;36.67;30.33;;;;;;;3.50;100.00;102347.19;2102179;28;20183;-63
2022/12/30 05:14:28;;;;;;;43.97;31.50;;;;;;;3.56;100.00;102350.50;2106333;28;20214;-64
2022/12/30 05:15:28;;;;;;;37.57;29.63;;;;;;;3.60;100.00;102357.69;2106578;28;20195;-63
2022/12/30 05:16:29;;;;;;;36.53;29.83;;;;;;;3.47;100.00;102327.91;2099921;28;20218;-64
2022/12/30 05:17:29;;;;;;;39.37;29.50;;;;;;;3.66;100.00;102358.28;2103950;28;20179;-63
2022/12/30 05:18:30;;;;;;;38.73;29.53;;;;;;;3.70;100.00;102359.19;2104070;28;20227;-63
2022/12/30 05:19:30;;;;;;;37.60;28.40;;;;;;;3.71;100.00;102355.31;2102203;28;20184;-63
2022/12/30 05:20:31;;;;;;;38.87;29.63;;;;;;;3.75;100.00;102356.22;2100072;28;20576;-64
2022/12/30 05:21:31;;;;;;;38.80;30.27;;;;;;;3.80;100.00;102359.50;2102042;28;20227;-64
2022/12/30 05:22:32;;;;;;;38.93;29.80;;;;;;;3.64;100.00;102317.50;2105866;28;20685;-63
2022/12/30 05:26:15;;;;;;;38.95;27.85;;;;;;;3.15;100.00;102220.03;2106407;28;20615;-64
2022/12/30 05:27:15;;;;;;;38.70;28.63;;;;;;;3.97;100.00;102342.81;2105550;28;20213;-63
2022/12/30 05:28:16;;;;;;;36.33;27.83;;;;;;;3.95;100.00;102328.63;2105499;28;20663;-63
2022/12/30 05:29:16;;;;;;;37.20;28.50;;;;;;;4.05;100.00;102347.34;2105355;28;20185;-64
2022/12/30 05:30:17;;;;;;;35.93;28.57;;;;;;;4.06;100.00;102348.16;2098157;28;20304;-63
2022/12/30 05:31:18;;;;;;;37.70;27.10;;;;;;;4.02;100.00;102334.34;2097997;28;20196;-63
2022/12/30 05:32:19;;;;;;;34.45;27.35;;;;;;;4.12;100.00;102344.84;2102629;28;20188;-63
2022/12/30 05:33:19;;;;;;;34.90;27.47;;;;;;;4.13;100.00;102349.16;2105795;28;20200;-64
2022/12/30 05:34:20;;;;;;;35.93;28.77;;;;;;;4.13;100.00;102343.69;2105236;28;20209;-63
2022/12/30 05:35:20;;;;;;;36.13;28.20;;;;;;;4.13;100.00;102343.69;2105316;28;20200;-63
2022/12/30 05:36:21;;;;;;;34.90;28.40;;;;;;;4.13;100.00;102337.38;2098316;28;20643;-63
2022/12/30 05:37:21;;;;;;;36.90;29.17;;;;;;;4.11;100.00;102345.97;2104747;28;20190;-64
2022/12/30 05:38:22;;;;;;;39.30;29.50;;;;;;;4.02;100.00;102337.09;2100380;28;20192;-63
2022/12/30 05:39:22;;;;;;;37.17;28.70;;;;;;;4.06;100.00;102356.38;2097866;28;20198;-63
2022/12/30 05:40:22;;;;;;;38.33;29.33;;;;;;;4.06;100.00;102350.91;2099025;28;20624;-63
2022/12/30 05:41:23;;;;;;;36.17;28.90;;;;;;;3.93;100.00;102330.94;2104882;28;20180;-64